Time;durP1;ratioP1;P1;durP2;ratioP2;P2;SDS_P1;SDS_P2;PMS_P1;PMS_P2;Temp;Humidity;BMP_temperature;BMP_pressure;BME280_temperature;BME280_humidity;BME280_pressure;Samples;Min_cycle;Max_cycle;Signal;HPM_P1;HPM_P2
2023/10/28 00:00:16;;;;;;;5.33;2.97;;;;;;;21.87;46.66;94044.06;6017358;28;109104;-68
2023/10/28 00:03:20;;;;;;;4.30;3.40;;;;;;;21.92;46.60;94080.38;6015094;28;109302;-68
2023/10/28 00:06:23;;;;;;;4.70;3.17;;;;;;;21.94;46.86;94083.47;5985538;28;109249;-69
2023/10/28 00:09:27;;;;;;;4.20;2.80;;;;;;;21.91;46.26;94084.91;6016779;29;109299;-69
2023/10/28 00:12:31;;;;;;;5.13;3.17;;;;;;;21.90;46.39;94090.56;6027168;28;113705;-69
2023/10/28 00:15:34;;;;;;;4.77;3.20;;;;;;;21.91;46.43;94078.81;6022419;28;109279;-69
2023/10/28 00:18:37;;;;;;;4.70;2.87;;;;;;;21.88;46.97;94095.44;6004953;28;109247;-68
2023/10/28 00:21:40;;;;;;;3.30;2.60;;;;;;;21.86;46.47;94069.16;6016528;28;109126;-69
2023/10/28 00:24:44;;;;;;;8.00;2.57;;;;;;;21.86;46.95;94082.47;6016996;28;109103;-68
2023/10/28 00:27:49;;;;;;;3.70;2.33;;;;;;;21.89;46.78;94079.13;6016633;28;109151;-69
2023/10/28 00:30:52;;;;;;;5.23;3.33;;;;;;;21.89;46.49;94087.13;6007457;28;109317;-68
2023/10/28 00:33:55;;;;;;;4.03;2.70;;;;;;;21.89;46.73;94067.72;6015590;28;109166;-68
2023/10/28 00:36:58;;;;;;;4.67;3.40;;;;;;;21.88;46.37;94080.25;6016616;28;110547;-69
2023/10/28 00:40:05;;;;;;;5.70;4.80;;;;;;;21.88;46.90;94074.91;6008068;28;109581;-68
2023/10/28 00:43:10;;;;;;;5.80;3.77;;;;;;;21.86;46.54;94095.00;6015508;28;110422;-68
2023/10/28 00:46:13;;;;;;;4.30;3.20;;;;;;;21.86;46.65;94093.13;6016266;28;109360;-69
2023/10/28 00:49:16;;;;;;;4.50;3.30;;;;;;;21.86;47.00;94090.44;6030874;28;109231;-68
2023/10/28 00:52:21;;;;;;;4.20;2.90;;;;;;;21.87;46.95;94099.22;6012466;28;109206;-68
2023/10/28 00:55:26;;;;;;;4.73;3.30;;;;;;;21.87;46.69;94102.66;6023077;28;109587;-68
2023/10/28 00:58:31;;;;;;;4.23;3.13;;;;;;;21.87;46.80;94104.56;6016780;28;110165;-69
2023/10/28 01:01:34;;;;;;;4.00;2.70;;;;;;;21.85;46.88;94104.88;6016124;28;109140;-68
2023/10/28 01:04:38;;;;;;;4.40;3.00;;;;;;;21.85;47.11;94094.22;6004129;28;109150;-68
2023/10/28 01:07:45;;;;;;;8.93;3.00;;;;;;;21.85;46.81;94101.44;6019877;28;110317;-68
2023/10/28 01:10:48;;;;;;;5.80;3.10;;;;;;;21.83;47.07;94099.06;6019567;28;109314;-68
2023/10/28 01:13:53;;;;;;;5.93;3.30;;;;;;;21.82;46.64;94108.16;6015315;28;109575;-68
2023/10/28 01:16:56;;;;;;;4.10;2.57;;;;;;;21.81;46.83;94104.69;6015844;28;110290;-68
2023/10/28 01:20:00;;;;;;;4.87;3.60;;;;;;;21.83;46.96;94098.28;6019954;28;109381;-68
2023/10/28 01:23:05;;;;;;;4.90;2.80;;;;;;;21.81;47.24;94095.94;6020598;28;109667;-68
2023/10/28 01:26:08;;;;;;;3.10;2.60;;;;;;;21.82;46.70;94102.84;6010115;28;109974;-69
2023/10/28 01:29:12;;;;;;;3.40;2.53;;;;;;;21.81;47.19;94106.59;6019676;28;111465;-69
2023/10/28 01:32:15;;;;;;;4.83;2.80;;;;;;;21.80;47.01;94116.47;6020219;28;109128;-69
2023/10/28 01:35:19;;;;;;;5.23;2.83;;;;;;;21.83;47.23;94116.94;6019352;28;109124;-69
2023/10/28 01:38:24;;;;;;;3.23;2.77;;;;;;;21.79;47.02;94117.56;6008491;28;110138;-69
2023/10/28 01:41:28;;;;;;;3.23;2.60;;;;;;;21.79;47.17;94108.81;6019609;28;109504;-69
2023/10/28 01:44:34;;;;;;;5.37;2.87;;;;;;;21.78;46.92;94110.69;6019556;28;109233;-68
2023/10/28 01:47:39;;;;;;;4.00;2.30;;;;;;;21.78;47.20;94115.22;6014853;28;109282;-68
2023/10/28 01:50:42;;;;;;;5.33;2.87;;;;;;;21.79;47.03;94108.81;6013197;28;110458;-68
2023/10/28 01:53:46;;;;;;;6.50;2.97;;;;;;;21.79;46.93;94111.47;6019395;28;110168;-68
2023/10/28 01:56:49;;;;;;;4.20;3.00;;;;;;;21.78;46.87;94115.22;6020343;29;109212;-68
2023/10/28 01:59:53;;;;;;;4.40;2.27;;;;;;;21.76;47.01;94102.25;6013594;28;109930;-69
2023/10/28 02:02:56;;;;;;;7.50;2.53;;;;;;;21.77;47.31;94103.03;6019926;28;109121;-67
2023/10/28 02:05:59;;;;;;;6.37;2.57;;;;;;;21.79;46.93;94108.81;6018304;28;109217;-68
2023/10/28 02:09:04;;;;;;;5.97;2.43;;;;;;;21.77;47.36;94103.03;6019194;28;110104;-67
2023/10/28 02:12:08;;;;;;;4.37;2.57;;;;;;;21.76;47.02;94115.56;6008418;28;109390;-69
2023/10/28 02:15:12;;;;;;;4.90;2.80;;;;;;;21.77;47.40;94124.31;6018633;28;109192;-68
2023/10/28 02:18:15;;;;;;;4.07;2.90;;;;;;;21.78;47.40;94128.53;6017543;28;109770;-68
2023/10/28 02:21:20;;;;;;;6.43;4.00;;;;;;;21.77;46.93;94134.97;6019879;29;109293;-68
2023/10/28 02:24:24;;;;;;;3.80;2.80;;;;;;;21.82;47.20;94126.81;6007349;28;109419;-68
2023/10/28 02:27:27;;;;;;;3.83;2.80;;;;;;;21.83;47.03;94131.03;6017849;28;109142;-68
2023/10/28 02:30:30;;;;;;;4.57;2.83;;;;;;;21.80;47.10;94136.97;6018636;28;110158;-68
2023/10/28 02:33:34;;;;;;;7.07;2.60;;;;;;;21.78;47.52;94134.66;6011561;28;108999;-67
2023/10/28 02:36:38;;;;;;;6.50;3.23;;;;;;;21.80;47.42;94135.09;6015581;29;109438;-69
2023/10/28 02:39:42;;;;;;;3.33;2.60;;;;;;;21.79;47.14;94143.41;6017519;28;110392;-68
2023/10/28 02:42:45;;;;;;;3.63;3.10;;;;;;;21.77;47.60;94145.63;6006270;28;109499;-67
2023/10/28 02:45:48;;;;;;;4.83;2.70;;;;;;;21.74;47.42;94138.28;6006882;28;109273;-68
2023/10/28 02:48:52;;;;;;;4.33;2.90;;;;;;;21.75;47.38;94137.97;6018547;28;109514;-68
2023/10/28 02:51:55;;;;;;;3.13;2.30;;;;;;;21.74;47.60;94127.66;6018070;28;109337;-68
2023/10/28 02:55:00;;;;;;;4.00;2.80;;;;;;;21.75;47.56;94137.97;6018104;28;109099;-68
2023/10/28 02:58:04;;;;;;;7.07;3.40;;;;;;;21.75;47.00;94137.19;6007430;28;109257;-68
2023/10/28 03:01:08;;;;;;;5.17;2.93;;;;;;;21.74;47.18;94148.94;6018168;28;110229;-68
2023/10/28 03:04:11;;;;;;;6.27;2.60;;;;;;;21.74;47.49;94148.94;6025777;28;109284;-68
2023/10/28 03:07:15;;;;;;;5.33;3.27;;;;;;;21.74;47.70;94139.06;6013000;29;109254;-69
2023/10/28 03:10:20;;;;;;;5.63;3.17;;;;;;;21.73;47.68;94139.41;6011246;28;110664;-69
2023/10/28 03:13:23;;;;;;;6.83;5.43;;;;;;;21.75;47.56;94123.88;6018547;28;109660;-69
2023/10/28 03:16:27;;;;;;;5.43;4.20;;;;;;;21.76;47.70;94146.75;6016746;28;109274;-69
2023/10/28 03:19:30;;;;;;;9.70;8.80;;;;;;;21.76;47.59;94139.53;6005638;28;109071;-68
2023/10/28 03:22:33;;;;;;;10.30;9.30;;;;;;;21.74;47.60;94141.75;6015620;28;109730;-69
2023/10/28 03:25:38;;;;;;;7.47;6.77;;;;;;;21.76;47.18;94152.06;6014328;28;109297;-69
2023/10/28 03:28:41;;;;;;;8.30;6.47;;;;;;;21.77;47.57;94150.97;6013928;28;110226;-68
2023/10/28 03:31:44;;;;;;;7.43;5.30;;;;;;;21.75;47.41;94151.28;6006096;28;109683;-69
2023/10/28 03:34:47;;;;;;;6.30;5.10;;;;;;;21.73;47.24;94158.81;6016325;28;109131;-68
2023/10/28 03:37:51;;;;;;;5.43;4.90;;;;;;;21.74;47.73;94162.25;6016698;28;109142;-68
2023/10/28 03:40:56;;;;;;;6.30;4.70;;;;;;;21.75;47.84;94161.94;6014578;28;109261;-69
2023/10/28 03:43:59;;;;;;;5.67;4.40;;;;;;;21.75;47.47;94166.47;6007347;28;109072;-69
2023/10/28 03:47:04;;;;;;;5.00;3.97;;;;;;;21.75;47.70;94171.81;6015112;29;109100;-69
2023/10/28 03:50:08;;;;;;;8.47;7.67;;;;;;;21.74;47.07;94173.69;6015962;28;109048;-68
2023/10/28 03:53:11;;;;;;;9.13;7.63;;;;;;;21.74;47.27;94170.25;6007690;28;110109;-68
2023/10/28 03:56:16;;;;;;;7.23;5.87;;;;;;;21.73;47.52;94174.03;6016847;29;109320;-67
2023/10/28 03:59:20;;;;;;;7.23;5.90;;;;;;;21.73;47.29;94177.47;6016587;28;109482;-68
2023/10/28 04:02:23;;;;;;;6.13;5.53;;;;;;;21.73;47.51;94166.81;6013853;28;109315;-69
2023/10/28 04:05:26;;;;;;;5.80;5.20;;;;;;;21.74;47.55;94191.56;6006166;28;109235;-68
2023/10/28 04:08:29;;;;;;;5.03;4.50;;;;;;;21.73;47.30;94177.47;6013318;28;109356;-68
2023/10/28 04:11:34;;;;;;;6.13;4.33;;;;;;;21.74;47.39;94191.56;6016813;29;110471;-68
2023/10/28 04:14:37;;;;;;;9.50;6.40;;;;;;;21.74;47.24;94189.66;6014743;28;110091;-68
2023/10/28 04:17:40;;;;;;;8.83;6.40;;;;;;;21.73;46.91;94174.03;6006574;29;109194;-68
2023/10/28 04:20:43;;;;;;;6.60;6.00;;;;;;;21.73;46.89;94179.34;6015801;28;109522;-69
2023/10/28 04:23:46;;;;;;;6.30;5.63;;;;;;;21.73;47.16;94193.44;6016511;28;110110;-68
2023/10/28 04:26:51;;;;;;;11.67;10.47;;;;;;;21.73;47.07;94196.09;6011471;29;109908;-68
2023/10/28 04:29:54;;;;;;;10.90;9.13;;;;;;;21.72;47.53;94183.13;6011727;28;109137;-68
2023/10/28 04:32:57;;;;;;;12.63;11.33;;;;;;;21.72;47.17;94194.53;6016416;28;110058;-68
2023/10/28 04:36:00;;;;;;;12.37;9.20;;;;;;;21.73;46.92;94190.78;6018150;28;109452;-69
2023/10/28 04:39:05;;;;;;;8.27;6.90;;;;;;;21.73;47.13;94197.97;6004218;28;109028;-69
2023/10/28 04:42:09;;;;;;;10.07;8.93;;;;;;;21.71;47.25;94206.31;6019055;29;109612;-68
2023/10/28 04:45:12;;;;;;;11.67;9.77;;;;;;;21.70;47.18;94211.94;6019316;28;109119;-68
2023/10/28 04:48:15;;;;;;;12.70;7.00;;;;;;;21.71;47.43;94222.28;6020696;28;109570;-68
2023/10/28 04:51:18;;;;;;;8.73;6.40;;;;;;;21.69;47.73;94213.06;6010123;28;109963;-68
2023/10/28 04:54:21;;;;;;;12.53;10.33;;;;;;;21.71;47.35;94224.94;6021226;28;109201;-68
2023/10/28 04:57:26;;;;;;;13.07;11.73;;;;;;;21.71;47.27;94218.84;6020037;28;109246;-68
2023/10/28 05:00:29;;;;;;;9.80;7.47;;;;;;;21.71;47.53;94227.59;6020199;28;110042;-68
2023/10/28 05:03:33;;;;;;;10.87;8.07;;;;;;;21.70;47.53;94225.25;6011695;28;109789;-67
2023/10/28 05:06:36;;;;;;;9.73;6.50;;;;;;;21.70;47.28;94238.56;6020410;29;110502;-68
2023/10/28 05:09:39;;;;;;;10.30;7.47;;;;;;;21.69;47.48;94237.03;6018983;28;110605;-68
2023/10/28 05:12:43;;;;;;;12.13;7.50;;;;;;;21.69;47.26;94232.47;6010809;29;109248;-68
2023/10/28 05:15:46;;;;;;;10.77;8.10;;;;;;;21.70;48.60;94246.56;6018521;28;109147;-69
2023/10/28 05:18:49;;;;;;;41.23;37.03;;;;;;;21.65;49.85;94244.84;6023737;28;109242;-68
2023/10/28 05:21:54;;;;;;;30.13;26.30;;;;;;;21.63;49.09;94251.59;6044562;28;109436;-68
2023/10/28 05:24:57;;;;;;;47.77;43.23;;;;;;;21.69;48.97;94266.31;6022183;28;109620;-68
2023/10/28 05:28:02;;;;;;;23.47;21.30;;;;;;;21.46;48.67;94253.25;6023086;28;109077;-68
2023/10/28 05:31:06;;;;;;;35.20;31.40;;;;;;;21.31;49.94;94267.09;6021836;28;110190;-65
2023/10/28 05:34:09;;;;;;;25.43;22.53;;;;;;;21.24;49.02;94269.47;6020727;28;110364;-68
2023/10/28 05:37:12;;;;;;;24.10;21.50;;;;;;;21.35;48.97;94262.72;6002993;29;110043;-67
2023/10/28 05:40:15;;;;;;;29.43;26.33;;;;;;;21.51;48.83;94289.56;6010508;28;110448;-67
2023/10/28 05:43:20;;;;;;;25.10;22.50;;;;;;;21.55;48.89;94279.06;6020240;29;109061;-68
2023/10/28 05:46:23;;;;;;;17.97;16.03;;;;;;;21.59;48.18;94272.78;6014146;28;110131;-68
2023/10/28 05:49:26;;;;;;;24.80;22.40;;;;;;;21.65;48.78;94286.66;6014160;28;109071;-68
2023/10/28 05:52:30;;;;;;;18.53;16.67;;;;;;;21.65;48.23;94284.78;6019364;29;112458;-67
2023/10/28 05:55:33;;;;;;;18.87;16.87;;;;;;;21.63;49.18;94292.31;6019447;29;109712;-68
2023/10/28 05:58:38;;;;;;;15.10;13.60;;;;;;;21.68;48.44;94300.16;6008786;28;110270;-68
2023/10/28 06:01:41;;;;;;;17.90;12.50;;;;;;;21.68;48.28;94304.69;6020521;29;109138;-68
2023/10/28 06:04:44;;;;;;;12.23;10.43;;;;;;;21.68;48.53;94302.81;6020562;28;113399;-68
2023/10/28 06:07:49;;;;;;;9.93;8.93;;;;;;;21.73;48.24;94318.59;6021002;29;110266;-67
2023/10/28 06:10:52;;;;;;;10.90;9.70;;;;;;;21.71;48.29;94334.13;6007308;28;109071;-67
2023/10/28 06:13:57;;;;;;;13.20;8.17;;;;;;;21.57;49.46;94325.56;6017083;28;109711;-68
2023/10/28 06:17:00;;;;;;;9.83;7.20;;;;;;;21.63;48.86;94316.28;6016869;28;110569;-68
2023/10/28 06:20:05;;;;;;;11.87;10.10;;;;;;;21.63;48.62;94318.94;6013523;28;109128;-66
2023/10/28 06:23:08;;;;;;;13.63;10.33;;;;;;;21.75;48.85;94336.91;6013839;28;110196;-69
2023/10/28 06:26:12;;;;;;;12.23;9.13;;;;;;;21.81;48.41;94323.09;6025148;28;109051;-68
2023/10/28 06:29:16;;;;;;;12.17;9.00;;;;;;;21.96;49.49;94337.78;6020045;28;109164;-69
2023/10/28 06:32:19;;;;;;;13.73;9.13;;;;;;;22.06;50.40;94348.06;6009784;28;109087;-67
2023/10/28 06:35:23;;;;;;;24.80;8.40;;;;;;;22.00;50.28;94351.22;6025090;28;109304;-68
2023/10/28 06:38:28;;;;;;;13.53;8.60;;;;;;;22.05;50.18;94351.84;6018813;28;110436;-67
2023/10/28 06:41:31;;;;;;;13.47;6.87;;;;;;;22.12;50.38;94359.31;6018699;28;110392;-65
2023/10/28 06:44:35;;;;;;;14.67;7.10;;;;;;;22.14;49.58;94367.75;6005781;28;110150;-67
2023/10/28 06:47:38;;;;;;;16.77;9.20;;;;;;;22.01;49.28;94364.25;6018652;28;110650;-67
2023/10/28 06:50:42;;;;;;;11.30;7.83;;;;;;;22.15;49.66;94376.53;6018621;28;111284;-67
2023/10/28 06:53:45;;;;;;;12.33;8.70;;;;;;;22.09;48.62;94394.59;6014327;28;109320;-67
2023/10/28 06:56:48;;;;;;;10.97;7.57;;;;;;;22.24;49.59;94386.06;6005861;28;110371;-66
2023/10/28 06:59:53;;;;;;;11.30;7.47;;;;;;;22.47;49.69;94391.88;6017950;28;109316;-69
2023/10/28 07:02:57;;;;;;;13.63;7.50;;;;;;;22.50;49.66;94398.44;6017516;28;110554;-70
2023/10/28 07:06:00;;;;;;;16.50;8.10;;;;;;;22.48;49.91;94405.97;6008234;28;108879;-69
2023/10/28 07:09:04;;;;;;;11.80;10.00;;;;;;;22.49;49.10;94402.22;6012160;28;109498;-70
2023/10/28 07:12:08;;;;;;;13.10;10.53;;;;;;;22.51;49.29;94400.78;6025829;28;109093;-69
2023/10/28 07:15:13;;;;;;;12.60;10.40;;;;;;;22.61;49.87;94418.31;6018549;28;109954;-69
2023/10/28 07:18:18;;;;;;;12.77;10.57;;;;;;;22.64;50.02;94415.78;6023222;28;109629;-68
2023/10/28 07:21:21;;;;;;;15.80;10.27;;;;;;;22.70;51.29;94419.84;6016719;28;109091;-67
2023/10/28 07:24:24;;;;;;;15.30;9.23;;;;;;;22.77;51.36;94429.97;6017921;28;109260;-66
2023/10/28 07:27:28;;;;;;;16.10;8.90;;;;;;;22.78;50.90;94436.88;6016348;28;109288;-65
2023/10/28 07:30:32;;;;;;;20.00;8.33;;;;;;;22.75;50.46;94423.41;6008654;28;109588;-65
2023/10/28 07:33:36;;;;;;;15.43;8.80;;;;;;;22.72;50.46;94421.41;6003416;28;109097;-65
2023/10/28 07:36:39;;;;;;;11.60;8.23;;;;;;;22.70;50.21;94427.06;6016804;28;109179;-64
2023/10/28 07:39:44;;;;;;;14.77;7.43;;;;;;;22.73;49.62;94418.41;6016911;28;109202;-64
2023/10/28 07:42:47;;;;;;;13.07;8.20;;;;;;;22.77;49.87;94421.19;6014554;28;110142;-65
2023/10/28 07:45:52;;;;;;;9.50;7.73;;;;;;;22.82;49.35;94426.34;6015701;28;109134;-65
2023/10/28 07:48:55;;;;;;;12.33;7.80;;;;;;;22.79;48.97;94427.75;6018197;29;109162;-66
2023/10/28 07:51:58;;;;;;;10.97;7.20;;;;;;;22.76;49.37;94436.44;6008375;28;109432;-65
2023/10/28 07:55:04;;;;;;;11.90;7.23;;;;;;;22.78;48.61;94436.09;6016768;28;109172;-64
2023/10/28 07:58:07;;;;;;;8.67;6.20;;;;;;;22.77;48.95;94437.19;6017527;29;109268;-65
2023/10/28 08:01:15;;;;;;;12.23;6.30;;;;;;;22.77;48.36;94434.53;6017601;28;109022;-65
2023/10/28 08:04:18;;;;;;;12.70;5.33;;;;;;;22.80;48.48;94444.56;6006135;28;110383;-64
2023/10/28 08:07:22;;;;;;;12.73;8.33;;;;;;;22.75;48.68;94447.41;6016665;28;110294;-65
2023/10/28 08:10:25;;;;;;;9.33;8.13;;;;;;;22.69;48.36;94447.63;6013947;28;109488;-65
2023/10/28 08:13:28;;;;;;;14.40;8.60;;;;;;;22.84;47.94;94443.56;6013879;28;109257;-65
2023/10/28 08:16:35;;;;;;;13.60;8.57;;;;;;;22.88;48.17;94441.06;6008302;28;110053;-65
2023/10/28 08:19:38;;;;;;;10.40;9.30;;;;;;;22.86;48.28;94444.06;6020428;28;109089;-64
2023/10/28 08:22:43;;;;;;;10.17;8.87;;;;;;;22.90;48.61;94441.50;6017650;28;109275;-63
2023/10/28 08:25:47;;;;;;;17.90;7.53;;;;;;;22.91;48.51;94440.41;6009488;28;112271;-64
2023/10/28 08:28:51;;;;;;;19.53;8.40;;;;;;;22.90;48.78;94444.19;6016764;28;109864;-64
2023/10/28 08:31:57;;;;;;;16.17;7.17;;;;;;;22.93;48.67;94430.97;6020292;28;109237;-63
2023/10/28 08:35:00;;;;;;;11.17;8.20;;;;;;;22.96;48.52;94443.66;6018193;28;109540;-61
2023/10/28 08:38:06;;;;;;;11.03;7.60;;;;;;;22.99;48.32;94447.56;6015664;28;109208;-62
2023/10/28 08:41:09;;;;;;;8.80;6.83;;;;;;;22.98;47.71;94446.78;6023652;28;109241;-62
2023/10/28 08:44:14;;;;;;;12.00;6.63;;;;;;;23.00;47.25;94457.91;6019099;29;109384;-62
2023/10/28 08:47:24;;;;;;;16.53;7.90;;;;;;;23.00;47.23;94460.56;6038372;28;109159;-62
2023/10/28 08:50:27;;;;;;;11.13;6.77;;;;;;;22.98;47.82;94456.66;6010802;28;110185;-62
2023/10/28 08:53:33;;;;;;;13.13;7.53;;;;;;;22.94;47.75;94451.19;6020897;29;109197;-62
2023/10/28 08:56:40;;;;;;;11.93;8.80;;;;;;;22.95;47.83;94441.31;6021087;29;108762;-62
2023/10/28 08:59:44;;;;;;;11.70;8.33;;;;;;;22.95;47.28;94443.97;6013896;28;110380;-65
2023/10/28 09:02:50;;;;;;;12.60;9.53;;;;;;;22.94;47.40;94450.41;5996768;29;111480;-62
2023/10/28 09:05:54;;;;;;;14.03;11.00;;;;;;;22.93;47.39;94454.97;6023435;28;109591;-62
2023/10/28 09:08:58;;;;;;;12.40;11.10;;;;;;;22.96;47.61;94453.53;6017099;29;109164;-64
2023/10/28 09:12:03;;;;;;;11.17;8.93;;;;;;;23.01;47.23;94456.00;6008365;28;110562;-61
2023/10/28 09:15:08;;;;;;;11.50;6.07;;;;;;;22.94;46.47;94453.88;6021577;28;109580;-63
2023/10/28 09:18:13;;;;;;;7.47;4.43;;;;;;;22.93;45.99;94443.53;6007371;29;108806;-66
2023/10/28 09:21:16;;;;;;;7.03;4.43;;;;;;;23.01;45.88;94453.34;6015775;28;109229;-62
2023/10/28 09:24:21;;;;;;;10.20;4.60;;;;;;;23.09;46.31;94457.84;6012055;28;109164;-62
2023/10/28 09:27:24;;;;;;;8.63;4.80;;;;;;;23.13;45.99;94449.97;6023715;28;109120;-62
2023/10/28 09:30:28;;;;;;;13.13;5.33;;;;;;;23.18;45.66;94447.88;6023937;28;109218;-61
2023/10/28 09:33:33;;;;;;;5.77;4.73;;;;;;;23.22;45.60;94451.47;6018516;28;109272;-62
2023/10/28 09:36:36;;;;;;;8.10;4.40;;;;;;;23.24;46.17;94448.47;6009345;28;110208;-61
2023/10/28 09:39:41;;;;;;;12.87;5.90;;;;;;;23.17;46.07;94448.97;6016281;29;109119;-66
2023/10/28 09:42:44;;;;;;;11.73;4.77;;;;;;;23.13;45.64;94442.72;6018362;28;112150;-67
2023/10/28 09:45:51;;;;;;;7.70;5.20;;;;;;;23.14;45.35;94446.97;6006203;28;109214;-68
2023/10/28 09:48:59;;;;;;;12.60;5.50;;;;;;;23.16;46.12;94444.75;6017313;29;109255;-68
2023/10/28 09:52:07;;;;;;;14.60;5.70;;;;;;;23.18;45.84;94445.19;6017209;28;109906;-68
2023/10/28 09:55:13;;;;;;;12.37;5.93;;;;;;;23.22;45.49;94442.69;6017910;28;110014;-68
2023/10/28 09:58:20;;;;;;;5.70;5.03;;;;;;;23.29;46.17;94438.38;6015605;28;109470;-68
2023/10/28 10:01:40;;;;;;;7.83;4.80;;;;;;;23.42;45.96;94433.09;6028595;28;109123;-68
2023/10/28 10:04:50;;;;;;;12.30;5.63;;;;;;;23.40;46.46;94428.09;6018411;29;109011;-68
2023/10/28 10:07:53;;;;;;;7.63;5.00;;;;;;;23.34;46.67;94428.59;6010253;28;110170;-67
2023/10/28 10:10:59;;;;;;;10.50;6.00;;;;;;;23.29;47.42;94418.91;6014696;28;109311;-68
2023/10/28 10:14:10;;;;;;;15.50;9.47;;;;;;;23.30;47.10;94415.91;6015589;28;109530;-68
2023/10/28 10:17:22;;;;;;;9.60;7.37;;;;;;;23.36;46.38;94415.72;6014210;28;109414;-68
2023/10/28 10:20:28;;;;;;;9.00;7.60;;;;;;;23.38;46.85;94411.63;6009176;28;108915;-69
2023/10/28 10:23:39;;;;;;;9.83;6.53;;;;;;;23.42;45.23;94406.41;6025299;28;110098;-68
2023/10/28 10:26:42;;;;;;;6.47;4.30;;;;;;;23.40;42.88;94403.28;6020642;28;109167;-68
2023/10/28 10:29:46;;;;;;;6.53;4.33;;;;;;;23.42;43.08;94398.38;6017885;28;109138;-67
2023/10/28 10:32:51;;;;;;;6.77;5.30;;;;;;;23.43;44.68;94397.28;6008389;28;109043;-69
2023/10/28 10:35:56;;;;;;;5.87;3.23;;;;;;;23.42;39.45;94396.50;6016492;28;109689;-68
2023/10/28 10:39:10;;;;;;;3.53;2.83;;;;;;;23.41;37.35;94399.50;6017637;28;109134;-68
2023/10/28 10:42:14;;;;;;;4.27;1.97;;;;;;;23.38;37.14;94397.50;6008985;28;110107;-67
2023/10/28 10:45:18;;;;;;;7.00;3.87;;;;;;;23.33;38.84;94389.66;6017453;28;109491;-67
2023/10/28 10:48:22;;;;;;;5.87;3.40;;;;;;;23.33;39.61;94387.00;6016463;28;109290;-68
2023/10/28 10:51:27;;;;;;;5.23;2.93;;;;;;;23.34;39.38;94392.00;6017112;28;110200;-68
2023/10/28 10:54:31;;;;;;;4.63;3.30;;;;;;;23.34;40.25;94388.56;6006730;28;109300;-69
2023/10/28 10:57:37;;;;;;;4.83;3.47;;;;;;;23.36;40.52;94391.69;6017812;28;110063;-69
2023/10/28 11:00:40;;;;;;;5.60;3.50;;;;;;;23.35;41.62;94384.78;6018688;28;110246;-68
2023/10/28 11:03:44;;;;;;;5.70;4.13;;;;;;;23.33;42.59;94390.44;6018058;28;109214;-68
2023/10/28 11:06:51;;;;;;;5.57;3.80;;;;;;;23.33;43.36;94392.34;6004766;28;109164;-68
2023/10/28 11:09:56;;;;;;;8.10;3.87;;;;;;;23.30;43.86;94396.44;6015754;28;109859;-69
2023/10/28 11:13:01;;;;;;;6.00;4.50;;;;;;;23.29;44.70;94392.22;6022927;28;109396;-68
2023/10/28 11:16:04;;;;;;;5.67;3.93;;;;;;;23.27;45.25;94392.53;6006749;28;109117;-68
2023/10/28 11:19:09;;;;;;;5.90;4.57;;;;;;;23.26;45.50;94398.97;6015322;28;109258;-69
2023/10/28 11:22:14;;;;;;;7.00;4.83;;;;;;;23.26;46.58;94393.63;6016307;28;109063;-69
2023/10/28 11:25:20;;;;;;;6.40;5.03;;;;;;;23.26;46.39;94398.19;6018292;28;111736;-69
2023/10/28 11:28:33;;;;;;;6.23;4.43;;;;;;;23.23;47.23;94399.63;6007030;28;109247;-68
2023/10/28 11:31:39;;;;;;;5.30;3.73;;;;;;;23.19;45.08;94390.72;6010158;28;109048;-68
2023/10/28 11:34:44;;;;;;;6.10;4.20;;;;;;;23.19;45.94;94387.28;6016880;28;109407;-67
2023/10/28 11:37:50;;;;;;;10.03;5.00;;;;;;;23.18;47.48;94394.47;6015906;28;109253;-68
2023/10/28 11:41:03;;;;;;;30.90;6.77;;;;;;;23.32;45.39;94394.22;6006293;28;109317;-66
2023/10/28 11:44:10;;;;;;;20.73;5.77;;;;;;;23.22;47.67;94400.75;6016079;28;110073;-67
2023/10/28 11:47:13;;;;;;;30.20;6.47;;;;;;;23.24;47.09;94401.19;6014652;28;109101;-66
2023/10/28 11:50:17;;;;;;;13.17;5.27;;;;;;;23.28;49.98;94404.75;6005190;28;109009;-66
2023/10/28 11:53:25;;;;;;;16.90;4.70;;;;;;;23.32;49.40;94407.56;6020029;28;109467;-68
2023/10/28 11:56:31;;;;;;;14.70;4.70;;;;;;;23.29;48.65;94403.69;6022729;28;110007;-67
2023/10/28 11:59:35;;;;;;;11.60;3.90;;;;;;;23.26;47.97;94404.31;6024568;28;109367;-61
2023/10/28 12:02:39;;;;;;;11.03;3.60;;;;;;;23.27;48.20;94411.22;6011178;28;110143;-62
2023/10/28 12:05:42;;;;;;;16.83;4.57;;;;;;;23.27;48.08;94405.09;6016418;28;110082;-63
2023/10/28 12:08:48;;;;;;;17.93;5.07;;;;;;;23.24;48.22;94411.88;6030029;28;109238;-62
2023/10/28 12:11:52;;;;;;;13.90;4.67;;;;;;;23.25;48.57;94408.09;6016621;28;109992;-62
2023/10/28 12:14:55;;;;;;;11.00;4.80;;;;;;;23.26;48.69;94404.31;6006379;29;109038;-61
2023/10/28 12:17:58;;;;;;;8.37;4.60;;;;;;;23.24;47.77;94405.75;6028115;28;109108;-62
2023/10/28 12:21:01;;;;;;;8.50;3.70;;;;;;;23.23;47.30;94402.31;6016195;28;109361;-63
2023/10/28 12:24:07;;;;;;;5.83;3.50;;;;;;;23.24;46.92;94416.44;6011413;28;110559;-63
2023/10/28 12:27:13;;;;;;;6.13;3.37;;;;;;;23.21;46.84;94412.53;6013516;28;109329;-62
2023/10/28 12:30:17;;;;;;;6.00;3.00;;;;;;;23.24;46.55;94406.53;6016044;28;109317;-61
2023/10/28 12:33:20;;;;;;;5.93;3.00;;;;;;;23.24;46.42;94413.75;6016241;28;110089;-61
2023/10/28 12:36:23;;;;;;;6.03;2.50;;;;;;;23.25;46.11;94418.75;6007294;28;109107;-64
2023/10/28 12:39:29;;;;;;;3.93;2.33;;;;;;;23.26;46.15;94419.56;6016659;28;109290;-62
2023/10/28 12:42:34;;;;;;;7.00;2.77;;;;;;;23.25;46.19;94424.09;6016062;28;109442;-61
2023/10/28 12:45:37;;;;;;;3.93;2.37;;;;;;;23.25;45.82;94426.00;6017415;29;110151;-62
2023/10/28 12:48:40;;;;;;;4.37;2.50;;;;;;;23.23;46.23;94437.00;6006611;28;109214;-62
2023/10/28 12:51:43;;;;;;;4.90;2.37;;;;;;;23.24;45.77;94446.56;6018464;28;110235;-61
2023/10/28 12:54:48;;;;;;;4.10;2.47;;;;;;;23.21;45.84;94444.56;6015961;29;109242;-63
2023/10/28 12:57:51;;;;;;;5.10;3.03;;;;;;;23.21;45.88;94455.25;6012617;28;109292;-62
2023/10/28 13:00:54;;;;;;;4.90;2.73;;;;;;;23.20;45.76;94448.34;6010209;28;109566;-66
2023/10/28 13:03:58;;;;;;;5.90;3.70;;;;;;;23.21;46.29;94449.13;6019871;28;110097;-62
2023/10/28 13:07:01;;;;;;;4.47;2.90;;;;;;;23.22;45.60;94445.34;6020610;28;108900;-63
2023/10/28 13:10:11;;;;;;;6.10;2.90;;;;;;;23.22;45.57;94450.69;6009458;29;109209;-61
2023/10/28 13:13:14;;;;;;;3.67;2.80;;;;;;;23.24;45.70;94440.44;6020416;28;109092;-61
2023/10/28 13:16:18;;;;;;;6.10;3.27;;;;;;;23.23;45.65;94447.69;6020426;29;109142;-62
2023/10/28 13:19:21;;;;;;;4.77;2.80;;;;;;;23.23;46.15;94437.00;6019202;28;109279;-61
2023/10/28 13:22:24;;;;;;;4.17;2.40;;;;;;;23.24;45.71;94443.13;6008328;28;109245;-60
2023/10/28 13:25:29;;;;;;;5.53;2.90;;;;;;;23.24;45.74;94451.13;6020945;29;110190;-63
2023/10/28 13:28:32;;;;;;;6.13;2.80;;;;;;;23.24;45.66;94451.91;6020247;28;109278;-63
2023/10/28 13:31:35;;;;;;;4.83;2.80;;;;;;;23.24;45.66;94459.13;6017848;28;109104;-64
2023/10/28 13:34:38;;;;;;;7.33;3.00;;;;;;;23.15;46.18;94451.19;6011487;28;111339;-70
2023/10/28 13:37:41;;;;;;;8.00;3.73;;;;;;;23.11;45.90;94447.63;6020713;28;110227;-63
2023/10/28 13:40:46;;;;;;;7.27;2.83;;;;;;;23.16;46.04;94451.97;6018900;28;109223;-62
2023/10/28 13:43:49;;;;;;;6.20;3.10;;;;;;;23.18;46.34;94455.09;6010685;28;109841;-62
2023/10/28 13:46:52;;;;;;;3.83;2.53;;;;;;;23.21;46.35;94462.47;6021261;28;109197;-61
2023/10/28 13:49:55;;;;;;;7.53;3.10;;;;;;;23.23;46.67;94458.38;6034014;28;110070;-61
2023/10/28 13:52:58;;;;;;;5.83;2.80;;;;;;;23.23;47.09;94463.69;6017150;28;109257;-60
2023/10/28 13:56:06;;;;;;;8.13;2.73;;;;;;;23.25;46.61;94456.13;6008333;28;109239;-60
2023/10/28 13:59:11;;;;;;;6.30;2.57;;;;;;;23.24;46.79;94459.91;6018824;28;110243;-61
2023/10/28 14:02:14;;;;;;;5.37;2.27;;;;;;;23.20;46.68;94464.34;6018285;28;110336;-71
2023/10/28 14:05:17;;;;;;;5.83;2.57;;;;;;;23.25;47.12;94471.38;6019008;28;109174;-71
2023/10/28 14:08:20;;;;;;;6.30;2.67;;;;;;;23.27;47.22;94472.59;6010671;28;109312;-71
2023/10/28 14:11:26;;;;;;;5.23;2.70;;;;;;;23.27;46.63;94477.16;6017644;28;109812;-71